createdAt,value
2023-01-30T00:23:01.063Z,29.58
2023-01-30T00:45:18.552Z,38.25
2023-01-30T00:47:50.656Z,35.15
2023-01-30T00:50:20.468Z,41.00
2023-01-30T00:52:51.950Z,29.67
2023-01-30T00:55:19.885Z,35.20
2023-01-30T00:57:53.415Z,38.30
2023-01-30T01:00:23.437Z,37.15
2023-01-30T01:02:57.611Z,32.65
2023-01-30T01:05:28.862Z,31.15
2023-01-30T01:07:59.869Z,35.03
2023-01-30T01:10:28.225Z,37.60
2023-01-30T01:13:03.373Z,29.75
2023-01-30T01:15:35.008Z,34.17
2023-01-30T01:20:43.565Z,37.97
2023-01-30T01:23:22.066Z,32.80
2023-01-30T01:25:57.268Z,25.38
2023-01-30T01:28:31.482Z,28.05
2023-01-30T01:31:15.010Z,28.90
2023-01-30T01:33:52.138Z,25.17
2023-01-30T01:36:51.487Z,27.50
2023-01-30T01:39:11.660Z,29.48
2023-01-30T01:41:40.443Z,31.50
2023-01-30T01:44:30.266Z,30.52
2023-01-30T01:47:04.180Z,24.27
2023-01-30T01:49:38.657Z,25.67
2023-01-30T01:55:07.635Z,27.60
2023-01-30T01:57:40.284Z,25.90
2023-01-30T02:00:23.677Z,24.40
2023-01-30T02:03:19.775Z,26.50
2023-01-30T02:06:09.602Z,24.48
2023-01-30T02:09:31.465Z,32.22
2023-01-30T02:12:42.805Z,37.00
2023-01-30T02:15:47.016Z,38.58
2023-01-30T02:22:43.751Z,35.63
2023-01-30T02:30:05.608Z,27.55
2023-01-30T02:40:28.161Z,27.58
2023-01-30T02:43:34.790Z,24.10
2023-01-30T02:47:10.632Z,28.02
2023-01-30T02:50:27.078Z,30.85
2023-01-30T02:53:50.483Z,27.88
2023-01-30T02:57:04.573Z,33.15
2023-01-30T03:01:01.804Z,27.95
2023-01-30T03:03:46.272Z,33.95
2023-01-30T03:15:39.118Z,31.27
2023-01-30T03:18:11.988Z,25.38
2023-01-30T03:20:41.348Z,34.58
2023-01-30T03:23:30.309Z,30.38
2023-01-30T03:26:21.102Z,30.75
2023-01-30T03:32:59.041Z,25.73
2023-01-30T03:35:34.862Z,35.53
2023-01-30T03:38:05.098Z,30.67
2023-01-30T03:50:52.915Z,28.95
2023-01-30T03:54:58.086Z,33.65
2023-01-30T03:58:29.001Z,26.00
2023-01-30T04:01:52.258Z,26.35
2023-01-30T04:05:20.415Z,28.65
2023-01-30T04:08:09.687Z,27.27
2023-01-30T04:10:43.056Z,24.95
2023-01-30T04:14:02.417Z,30.58
2023-01-30T04:16:57.612Z,28.05
2023-01-30T04:20:05.376Z,32.72
2023-01-30T04:22:40.461Z,28.98
2023-01-30T04:25:13.373Z,28.13
2023-01-30T04:27:41.277Z,29.90
2023-01-30T04:30:19.536Z,27.42
2023-01-30T04:32:49.707Z,29.23
2023-01-30T04:35:23.180Z,31.05
2023-01-30T04:40:33.175Z,35.63
2023-01-30T04:43:06.352Z,29.27
2023-01-30T04:45:54.882Z,29.80
2023-01-30T04:48:38.960Z,30.88
2023-01-30T04:51:25.511Z,30.15
2023-01-30T04:54:11.160Z,31.63
2023-01-30T04:59:41.143Z,33.60
2023-01-30T05:02:14.302Z,35.15
2023-01-30T05:04:48.064Z,34.33
2023-01-30T05:07:19.000Z,41.88
2023-01-30T05:09:53.504Z,29.92
2023-01-30T05:12:22.385Z,31.20
2023-01-30T05:18:13.014Z,29.80
2023-01-30T05:21:02.540Z,25.33
2023-01-30T05:24:20.965Z,30.98
2023-01-30T05:26:58.056Z,25.97
2023-01-30T05:29:26.089Z,30.05
2023-01-30T05:31:55.081Z,29.17
2023-01-30T05:34:27.169Z,29.67
2023-01-30T05:36:57.109Z,19.23
2023-01-30T05:39:25.033Z,27.08
2023-01-30T05:41:58.445Z,29.42
2023-01-30T05:44:57.646Z,28.35
2023-01-30T05:50:41.280Z,24.38
2023-01-30T05:53:25.045Z,29.50
2023-01-30T05:56:12.568Z,24.52
2023-01-30T05:59:33.887Z,26.50
2023-01-30T06:08:29.957Z,25.17
2023-01-30T06:32:26.971Z,22.30
2023-01-30T06:40:55.347Z,27.52
2023-01-30T06:46:53.783Z,24.20
2023-01-30T06:56:11.528Z,21.60
2023-01-30T06:58:50.703Z,34.17
2023-01-30T07:07:26.152Z,23.15
2023-01-30T08:46:42.737Z,33.72
2023-01-30T08:49:39.304Z,29.95
2023-01-30T08:52:10.808Z,28.95
2023-01-30T08:54:40.129Z,28.13
2023-01-30T08:57:11.351Z,31.13
2023-01-30T08:59:49.593Z,34.28
2023-01-30T09:02:21.248Z,28.42
2023-01-30T09:05:01.609Z,27.65
2023-01-30T09:07:36.246Z,33.22
2023-01-30T09:13:50.747Z,31.73
2023-01-30T09:16:21.761Z,28.40
2023-01-30T09:19:01.350Z,31.27
2023-01-30T09:21:41.944Z,29.48
2023-01-30T09:24:30.238Z,35.00
2023-01-30T09:27:10.597Z,25.90
2023-01-30T09:29:39.242Z,32.80
2023-01-30T09:36:11.250Z,26.83
2023-01-30T09:39:11.642Z,25.63
2023-01-30T11:08:04.125Z,40.28
2023-01-30T11:10:48.324Z,41.88
2023-01-30T16:27:42.874Z,59.95
2023-01-30T16:38:45.810Z,66.90
2023-01-30T16:42:28.566Z,72.18
2023-01-30T16:45:21.236Z,81.47
2023-01-30T16:58:14.264Z,64.82
2023-01-30T17:39:19.098Z,61.80
2023-01-30T18:58:08.297Z,67.43
2023-01-30T19:09:50.700Z,68.45
2023-01-30T19:23:57.731Z,66.05
